sensor_id;sensor_type;location;lat;lon;timestamp;P1;durP1;ratioP1;P2;durP2;ratioP2
8317;SDS011;4196;48.926;8.964;2022-08-19T00:00:05;10.53;;;7.87;;
8317;SDS011;4196;48.926;8.964;2022-08-19T00:02:54;11.53;;;8.77;;
8317;SDS011;4196;48.926;8.964;2022-08-19T00:05:41;13.73;;;8.53;;
8317;SDS011;4196;48.926;8.964;2022-08-19T00:08:28;14.20;;;8.50;;
8317;SDS011;4196;48.926;8.964;2022-08-19T00:11:14;11.43;;;8.30;;
8317;SDS011;4196;48.926;8.964;2022-08-19T00:14:11;13.87;;;9.60;;
8317;SDS011;4196;48.926;8.964;2022-08-19T00:17:00;12.20;;;8.13;;
8317;SDS011;4196;48.926;8.964;2022-08-19T00:19:48;13.33;;;8.33;;
8317;SDS011;4196;48.926;8.964;2022-08-19T00:22:35;13.03;;;8.83;;
8317;SDS011;4196;48.926;8.964;2022-08-19T00:25:22;12.47;;;8.77;;
8317;SDS011;4196;48.926;8.964;2022-08-19T00:28:15;12.60;;;8.90;;
8317;SDS011;4196;48.926;8.964;2022-08-19T00:31:03;10.70;;;8.03;;
8317;SDS011;4196;48.926;8.964;2022-08-19T00:33:50;12.13;;;9.17;;
8317;SDS011;4196;48.926;8.964;2022-08-19T00:36:37;13.83;;;8.90;;
8317;SDS011;4196;48.926;8.964;2022-08-19T00:39:24;14.47;;;9.80;;
8317;SDS011;4196;48.926;8.964;2022-08-19T00:42:10;13.73;;;8.60;;
8317;SDS011;4196;48.926;8.964;2022-08-19T00:45:00;14.20;;;9.10;;
8317;SDS011;4196;48.926;8.964;2022-08-19T00:47:47;13.63;;;9.10;;
8317;SDS011;4196;48.926;8.964;2022-08-19T00:50:34;14.63;;;9.30;;
8317;SDS011;4196;48.926;8.964;2022-08-19T00:53:37;12.80;;;9.30;;
8317;SDS011;4196;48.926;8.964;2022-08-19T00:56:23;12.20;;;9.23;;
8317;SDS011;4196;48.926;8.964;2022-08-19T00:59:13;14.10;;;9.27;;
8317;SDS011;4196;48.926;8.964;2022-08-19T01:02:21;14.07;;;9.70;;
8317;SDS011;4196;48.926;8.964;2022-08-19T01:05:11;13.97;;;9.63;;
8317;SDS011;4196;48.926;8.964;2022-08-19T01:08:02;15.30;;;10.43;;
8317;SDS011;4196;48.926;8.964;2022-08-19T01:10:54;14.80;;;9.60;;
8317;SDS011;4196;48.926;8.964;2022-08-19T01:13:44;13.67;;;8.60;;
8317;SDS011;4196;48.926;8.964;2022-08-19T01:16:35;15.57;;;10.73;;
8317;SDS011;4196;48.926;8.964;2022-08-19T01:19:26;17.23;;;10.40;;
8317;SDS011;4196;48.926;8.964;2022-08-19T01:25:20;15.27;;;10.13;;
8317;SDS011;4196;48.926;8.964;2022-08-19T01:28:16;14.90;;;10.13;;
8317;SDS011;4196;48.926;8.964;2022-08-19T01:31:21;14.83;;;10.17;;
8317;SDS011;4196;48.926;8.964;2022-08-19T01:34:12;16.70;;;10.93;;
8317;SDS011;4196;48.926;8.964;2022-08-19T01:36:58;15.87;;;10.77;;
8317;SDS011;4196;48.926;8.964;2022-08-19T01:39:47;17.33;;;10.77;;
8317;SDS011;4196;48.926;8.964;2022-08-19T01:42:33;16.90;;;10.47;;
8317;SDS011;4196;48.926;8.964;2022-08-19T01:45:21;16.80;;;10.90;;
8317;SDS011;4196;48.926;8.964;2022-08-19T01:48:11;15.47;;;10.63;;
8317;SDS011;4196;48.926;8.964;2022-08-19T01:50:59;14.77;;;9.83;;
8317;SDS011;4196;48.926;8.964;2022-08-19T01:53:47;15.07;;;10.10;;
8317;SDS011;4196;48.926;8.964;2022-08-19T01:56:35;21.60;;;10.83;;
8317;SDS011;4196;48.926;8.964;2022-08-19T01:59:21;15.20;;;10.27;;
8317;SDS011;4196;48.926;8.964;2022-08-19T02:02:09;18.17;;;11.00;;
8317;SDS011;4196;48.926;8.964;2022-08-19T02:04:56;14.23;;;10.73;;
8317;SDS011;4196;48.926;8.964;2022-08-19T02:07:42;16.37;;;10.57;;
8317;SDS011;4196;48.926;8.964;2022-08-19T02:10:30;17.20;;;10.90;;
8317;SDS011;4196;48.926;8.964;2022-08-19T02:13:17;15.40;;;10.37;;
8317;SDS011;4196;48.926;8.964;2022-08-19T02:16:11;17.40;;;11.40;;
8317;SDS011;4196;48.926;8.964;2022-08-19T02:18:57;25.97;;;11.60;;
8317;SDS011;4196;48.926;8.964;2022-08-19T02:21:46;15.93;;;10.93;;
8317;SDS011;4196;48.926;8.964;2022-08-19T02:24:33;17.10;;;11.13;;
8317;SDS011;4196;48.926;8.964;2022-08-19T02:27:20;17.30;;;11.73;;
8317;SDS011;4196;48.926;8.964;2022-08-19T02:30:10;14.93;;;9.63;;
8317;SDS011;4196;48.926;8.964;2022-08-19T02:33:01;17.77;;;11.73;;
8317;SDS011;4196;48.926;8.964;2022-08-19T02:35:47;16.83;;;11.10;;
8317;SDS011;4196;48.926;8.964;2022-08-19T02:38:34;19.57;;;12.63;;
8317;SDS011;4196;48.926;8.964;2022-08-19T02:41:25;21.87;;;12.57;;
8317;SDS011;4196;48.926;8.964;2022-08-19T02:44:13;18.90;;;12.37;;
8317;SDS011;4196;48.926;8.964;2022-08-19T02:47:16;15.93;;;10.83;;
8317;SDS011;4196;48.926;8.964;2022-08-19T02:50:05;18.17;;;11.40;;
8317;SDS011;4196;48.926;8.964;2022-08-19T02:52:51;19.43;;;12.57;;
8317;SDS011;4196;48.926;8.964;2022-08-19T02:55:47;17.13;;;11.67;;
8317;SDS011;4196;48.926;8.964;2022-08-19T02:58:34;17.73;;;12.27;;
8317;SDS011;4196;48.926;8.964;2022-08-19T03:01:22;16.27;;;11.80;;
8317;SDS011;4196;48.926;8.964;2022-08-19T03:04:16;20.33;;;12.47;;
8317;SDS011;4196;48.926;8.964;2022-08-19T03:07:02;20.47;;;12.97;;
8317;SDS011;4196;48.926;8.964;2022-08-19T03:09:56;18.50;;;12.83;;
8317;SDS011;4196;48.926;8.964;2022-08-19T03:12:42;19.83;;;13.13;;
8317;SDS011;4196;48.926;8.964;2022-08-19T03:15:29;19.13;;;12.63;;
8317;SDS011;4196;48.926;8.964;2022-08-19T03:18:16;26.70;;;13.23;;
8317;SDS011;4196;48.926;8.964;2022-08-19T03:21:03;17.83;;;12.07;;
8317;SDS011;4196;48.926;8.964;2022-08-19T03:23:53;17.83;;;12.50;;
8317;SDS011;4196;48.926;8.964;2022-08-19T03:26:42;20.57;;;12.20;;
8317;SDS011;4196;48.926;8.964;2022-08-19T03:29:30;17.00;;;11.50;;
8317;SDS011;4196;48.926;8.964;2022-08-19T03:32:28;18.63;;;12.80;;
8317;SDS011;4196;48.926;8.964;2022-08-19T03:35:18;20.00;;;12.43;;
8317;SDS011;4196;48.926;8.964;2022-08-19T03:38:05;21.47;;;12.93;;
8317;SDS011;4196;48.926;8.964;2022-08-19T03:40:54;18.50;;;12.90;;
8317;SDS011;4196;48.926;8.964;2022-08-19T03:43:41;19.37;;;12.73;;
8317;SDS011;4196;48.926;8.964;2022-08-19T03:46:29;18.73;;;12.43;;
8317;SDS011;4196;48.926;8.964;2022-08-19T03:49:18;16.60;;;13.17;;
8317;SDS011;4196;48.926;8.964;2022-08-19T03:52:05;20.83;;;13.20;;
8317;SDS011;4196;48.926;8.964;2022-08-19T03:54:53;19.27;;;12.33;;
8317;SDS011;4196;48.926;8.964;2022-08-19T03:57:41;17.70;;;12.10;;
8317;SDS011;4196;48.926;8.964;2022-08-19T04:00:27;19.70;;;13.60;;
8317;SDS011;4196;48.926;8.964;2022-08-19T04:03:14;21.53;;;14.17;;
8317;SDS011;4196;48.926;8.964;2022-08-19T04:06:08;19.00;;;12.67;;
8317;SDS011;4196;48.926;8.964;2022-08-19T04:09:07;17.43;;;12.30;;
8317;SDS011;4196;48.926;8.964;2022-08-19T04:11:56;19.90;;;13.10;;
8317;SDS011;4196;48.926;8.964;2022-08-19T04:14:43;20.37;;;12.87;;
8317;SDS011;4196;48.926;8.964;2022-08-19T04:17:30;18.90;;;13.30;;
8317;SDS011;4196;48.926;8.964;2022-08-19T04:20:17;18.80;;;12.90;;
8317;SDS011;4196;48.926;8.964;2022-08-19T04:23:03;20.77;;;13.03;;
8317;SDS011;4196;48.926;8.964;2022-08-19T04:25:50;21.57;;;12.80;;
8317;SDS011;4196;48.926;8.964;2022-08-19T04:28:37;19.67;;;13.33;;
8317;SDS011;4196;48.926;8.964;2022-08-19T04:31:27;21.27;;;13.03;;
8317;SDS011;4196;48.926;8.964;2022-08-19T04:34:16;20.50;;;12.73;;
8317;SDS011;4196;48.926;8.964;2022-08-19T04:37:08;19.20;;;13.07;;
8317;SDS011;4196;48.926;8.964;2022-08-19T04:39:59;18.17;;;12.43;;
8317;SDS011;4196;48.926;8.964;2022-08-19T04:43:04;19.10;;;12.33;;
8317;SDS011;4196;48.926;8.964;2022-08-19T04:45:51;17.93;;;12.10;;
8317;SDS011;4196;48.926;8.964;2022-08-19T04:48:41;20.27;;;12.73;;
8317;SDS011;4196;48.926;8.964;2022-08-19T04:51:34;21.87;;;13.93;;
8317;SDS011;4196;48.926;8.964;2022-08-19T04:54:23;19.07;;;13.97;;
8317;SDS011;4196;48.926;8.964;2022-08-19T04:57:24;18.13;;;12.60;;
8317;SDS011;4196;48.926;8.964;2022-08-19T05:00:12;18.87;;;13.23;;
8317;SDS011;4196;48.926;8.964;2022-08-19T05:02:58;18.37;;;12.93;;
8317;SDS011;4196;48.926;8.964;2022-08-19T05:05:47;20.13;;;14.53;;
8317;SDS011;4196;48.926;8.964;2022-08-19T05:08:35;18.70;;;13.13;;
8317;SDS011;4196;48.926;8.964;2022-08-19T05:11:24;19.63;;;12.97;;
8317;SDS011;4196;48.926;8.964;2022-08-19T05:14:12;16.53;;;11.63;;
8317;SDS011;4196;48.926;8.964;2022-08-19T05:17:00;21.03;;;13.70;;
8317;SDS011;4196;48.926;8.964;2022-08-19T05:20:07;21.93;;;12.73;;
8317;SDS011;4196;48.926;8.964;2022-08-19T05:23:32;20.33;;;13.93;;
8317;SDS011;4196;48.926;8.964;2022-08-19T05:26:19;21.30;;;13.33;;
8317;SDS011;4196;48.926;8.964;2022-08-19T05:29:06;18.77;;;12.87;;
8317;SDS011;4196;48.926;8.964;2022-08-19T05:31:55;19.03;;;13.40;;
8317;SDS011;4196;48.926;8.964;2022-08-19T05:34:42;16.30;;;12.20;;
8317;SDS011;4196;48.926;8.964;2022-08-19T05:37:28;19.90;;;12.87;;
8317;SDS011;4196;48.926;8.964;2022-08-19T05:40:15;20.20;;;14.20;;
8317;SDS011;4196;48.926;8.964;2022-08-19T05:43:02;19.50;;;13.50;;
8317;SDS011;4196;48.926;8.964;2022-08-19T05:45:49;21.50;;;13.60;;
8317;SDS011;4196;48.926;8.964;2022-08-19T05:48:36;19.30;;;13.33;;
8317;SDS011;4196;48.926;8.964;2022-08-19T05:51:23;22.23;;;14.17;;
8317;SDS011;4196;48.926;8.964;2022-08-19T05:54:14;18.67;;;13.90;;
8317;SDS011;4196;48.926;8.964;2022-08-19T05:57:00;19.37;;;13.57;;
8317;SDS011;4196;48.926;8.964;2022-08-19T05:59:47;20.63;;;13.37;;
8317;SDS011;4196;48.926;8.964;2022-08-19T06:02:38;17.70;;;12.70;;
8317;SDS011;4196;48.926;8.964;2022-08-19T06:05:25;20.13;;;13.67;;
8317;SDS011;4196;48.926;8.964;2022-08-19T06:08:11;18.73;;;13.37;;
8317;SDS011;4196;48.926;8.964;2022-08-19T06:10:58;20.47;;;13.93;;
8317;SDS011;4196;48.926;8.964;2022-08-19T06:14:08;21.63;;;12.80;;
8317;SDS011;4196;48.926;8.964;2022-08-19T06:17:02;20.33;;;13.43;;
8317;SDS011;4196;48.926;8.964;2022-08-19T06:19:52;20.40;;;13.63;;
8317;SDS011;4196;48.926;8.964;2022-08-19T06:22:42;19.90;;;12.90;;
8317;SDS011;4196;48.926;8.964;2022-08-19T06:25:30;21.93;;;13.73;;
8317;SDS011;4196;48.926;8.964;2022-08-19T06:28:17;18.10;;;11.97;;
8317;SDS011;4196;48.926;8.964;2022-08-19T06:31:07;19.13;;;12.70;;
8317;SDS011;4196;48.926;8.964;2022-08-19T06:33:54;21.63;;;12.70;;
8317;SDS011;4196;48.926;8.964;2022-08-19T06:36:42;17.10;;;11.83;;
8317;SDS011;4196;48.926;8.964;2022-08-19T06:39:31;17.00;;;12.33;;
8317;SDS011;4196;48.926;8.964;2022-08-19T06:42:21;20.70;;;12.47;;
8317;SDS011;4196;48.926;8.964;2022-08-19T06:45:08;26.90;;;12.90;;
8317;SDS011;4196;48.926;8.964;2022-08-19T06:47:56;44.10;;;14.53;;
8317;SDS011;4196;48.926;8.964;2022-08-19T06:50:43;18.53;;;12.63;;
8317;SDS011;4196;48.926;8.964;2022-08-19T06:53:29;17.00;;;11.37;;
8317;SDS011;4196;48.926;8.964;2022-08-19T06:56:16;19.10;;;12.13;;
8317;SDS011;4196;48.926;8.964;2022-08-19T06:59:10;22.07;;;12.40;;
8317;SDS011;4196;48.926;8.964;2022-08-19T07:02:00;17.63;;;12.33;;
8317;SDS011;4196;48.926;8.964;2022-08-19T07:04:51;18.67;;;11.63;;
8317;SDS011;4196;48.926;8.964;2022-08-19T07:07:38;19.47;;;12.67;;
8317;SDS011;4196;48.926;8.964;2022-08-19T07:10:28;19.27;;;11.63;;
8317;SDS011;4196;48.926;8.964;2022-08-19T07:13:17;18.10;;;11.17;;
8317;SDS011;4196;48.926;8.964;2022-08-19T07:16:07;16.53;;;11.77;;
8317;SDS011;4196;48.926;8.964;2022-08-19T07:18:54;16.40;;;11.73;;
8317;SDS011;4196;48.926;8.964;2022-08-19T07:21:42;17.80;;;11.93;;
8317;SDS011;4196;48.926;8.964;2022-08-19T07:24:28;16.83;;;11.73;;
8317;SDS011;4196;48.926;8.964;2022-08-19T07:27:18;15.40;;;11.33;;
8317;SDS011;4196;48.926;8.964;2022-08-19T07:30:10;16.27;;;10.87;;
8317;SDS011;4196;48.926;8.964;2022-08-19T07:32:57;18.13;;;11.57;;
8317;SDS011;4196;48.926;8.964;2022-08-19T07:35:48;16.97;;;11.70;;
8317;SDS011;4196;48.926;8.964;2022-08-19T07:38:35;19.67;;;11.80;;
8317;SDS011;4196;48.926;8.964;2022-08-19T07:41:24;18.30;;;12.00;;
8317;SDS011;4196;48.926;8.964;2022-08-19T07:44:14;15.57;;;10.43;;
8317;SDS011;4196;48.926;8.964;2022-08-19T07:47:02;17.33;;;11.33;;
8317;SDS011;4196;48.926;8.964;2022-08-19T07:49:49;17.33;;;10.53;;
8317;SDS011;4196;48.926;8.964;2022-08-19T07:52:36;17.63;;;11.40;;
8317;SDS011;4196;48.926;8.964;2022-08-19T07:55:25;14.53;;;11.17;;
8317;SDS011;4196;48.926;8.964;2022-08-19T07:58:28;20.20;;;10.07;;
8317;SDS011;4196;48.926;8.964;2022-08-19T08:01:16;17.07;;;11.13;;
8317;SDS011;4196;48.926;8.964;2022-08-19T08:04:09;15.70;;;10.97;;
8317;SDS011;4196;48.926;8.964;2022-08-19T08:07:14;13.43;;;10.40;;
8317;SDS011;4196;48.926;8.964;2022-08-19T08:10:21;17.40;;;10.43;;
8317;SDS011;4196;48.926;8.964;2022-08-19T08:13:09;14.60;;;10.57;;
8317;SDS011;4196;48.926;8.964;2022-08-19T08:15:56;14.40;;;11.00;;
8317;SDS011;4196;48.926;8.964;2022-08-19T08:18:42;15.80;;;10.40;;
8317;SDS011;4196;48.926;8.964;2022-08-19T08:21:38;19.87;;;11.87;;
8317;SDS011;4196;48.926;8.964;2022-08-19T08:24:26;13.10;;;10.70;;
8317;SDS011;4196;48.926;8.964;2022-08-19T08:27:16;16.03;;;10.07;;
8317;SDS011;4196;48.926;8.964;2022-08-19T08:30:15;15.83;;;9.90;;
8317;SDS011;4196;48.926;8.964;2022-08-19T08:33:04;15.60;;;10.80;;
8317;SDS011;4196;48.926;8.964;2022-08-19T08:35:51;16.03;;;10.17;;
8317;SDS011;4196;48.926;8.964;2022-08-19T08:38:39;13.90;;;10.70;;
8317;SDS011;4196;48.926;8.964;2022-08-19T08:41:30;12.80;;;10.03;;
8317;SDS011;4196;48.926;8.964;2022-08-19T08:44:28;14.40;;;10.70;;
8317;SDS011;4196;48.926;8.964;2022-08-19T08:47:32;18.90;;;9.73;;
8317;SDS011;4196;48.926;8.964;2022-08-19T08:50:29;14.27;;;9.70;;
8317;SDS011;4196;48.926;8.964;2022-08-19T08:53:21;12.70;;;8.77;;
8317;SDS011;4196;48.926;8.964;2022-08-19T08:56:15;14.20;;;9.60;;
8317;SDS011;4196;48.926;8.964;2022-08-19T08:59:47;17.67;;;8.80;;
8317;SDS011;4196;48.926;8.964;2022-08-19T09:02:18;13.17;;;9.53;;
8317;SDS011;4196;48.926;8.964;2022-08-19T09:05:05;19.53;;;10.13;;
8317;SDS011;4196;48.926;8.964;2022-08-19T09:07:55;11.40;;;8.90;;
8317;SDS011;4196;48.926;8.964;2022-08-19T09:10:55;15.97;;;8.63;;
8317;SDS011;4196;48.926;8.964;2022-08-19T09:16:33;14.53;;;9.30;;
8317;SDS011;4196;48.926;8.964;2022-08-19T09:19:20;12.67;;;8.97;;
8317;SDS011;4196;48.926;8.964;2022-08-19T09:22:07;12.30;;;7.53;;
8317;SDS011;4196;48.926;8.964;2022-08-19T09:24:55;13.70;;;8.50;;
8317;SDS011;4196;48.926;8.964;2022-08-19T09:27:42;12.17;;;7.83;;
8317;SDS011;4196;48.926;8.964;2022-08-19T09:30:33;12.03;;;7.87;;
8317;SDS011;4196;48.926;8.964;2022-08-19T09:33:25;16.67;;;8.73;;
8317;SDS011;4196;48.926;8.964;2022-08-19T09:36:13;12.30;;;7.73;;
8317;SDS011;4196;48.926;8.964;2022-08-19T09:39:19;11.70;;;7.13;;
8317;SDS011;4196;48.926;8.964;2022-08-19T09:42:09;12.43;;;7.83;;
8317;SDS011;4196;48.926;8.964;2022-08-19T09:45:05;10.40;;;7.40;;
8317;SDS011;4196;48.926;8.964;2022-08-19T09:47:55;13.90;;;7.53;;
8317;SDS011;4196;48.926;8.964;2022-08-19T09:50:42;10.57;;;7.33;;
8317;SDS011;4196;48.926;8.964;2022-08-19T09:53:37;11.80;;;7.30;;
8317;SDS011;4196;48.926;8.964;2022-08-19T09:56:24;9.17;;;7.13;;
8317;SDS011;4196;48.926;8.964;2022-08-19T09:59:11;12.23;;;8.20;;
8317;SDS011;4196;48.926;8.964;2022-08-19T10:01:57;11.23;;;6.80;;
8317;SDS011;4196;48.926;8.964;2022-08-19T10:04:55;10.63;;;7.13;;
8317;SDS011;4196;48.926;8.964;2022-08-19T10:08:08;9.07;;;6.77;;
8317;SDS011;4196;48.926;8.964;2022-08-19T10:10:59;8.07;;;6.90;;
8317;SDS011;4196;48.926;8.964;2022-08-19T10:14:07;8.73;;;6.43;;
8317;SDS011;4196;48.926;8.964;2022-08-19T10:16:54;8.50;;;6.17;;
8317;SDS011;4196;48.926;8.964;2022-08-19T10:19:40;11.50;;;6.43;;
8317;SDS011;4196;48.926;8.964;2022-08-19T10:22:40;10.27;;;6.83;;
8317;SDS011;4196;48.926;8.964;2022-08-19T10:25:28;8.67;;;6.00;;
8317;SDS011;4196;48.926;8.964;2022-08-19T10:28:15;10.87;;;6.77;;
8317;SDS011;4196;48.926;8.964;2022-08-19T10:31:05;8.83;;;5.90;;
8317;SDS011;4196;48.926;8.964;2022-08-19T10:33:53;8.27;;;5.77;;
8317;SDS011;4196;48.926;8.964;2022-08-19T10:36:47;13.17;;;6.43;;
8317;SDS011;4196;48.926;8.964;2022-08-19T10:39:41;10.50;;;6.50;;
8317;SDS011;4196;48.926;8.964;2022-08-19T10:42:28;7.57;;;5.93;;
8317;SDS011;4196;48.926;8.964;2022-08-19T10:45:17;7.40;;;5.93;;
8317;SDS011;4196;48.926;8.964;2022-08-19T10:48:04;7.03;;;5.87;;
8317;SDS011;4196;48.926;8.964;2022-08-19T10:50:50;10.43;;;6.00;;
8317;SDS011;4196;48.926;8.964;2022-08-19T10:54:07;7.17;;;5.63;;
8317;SDS011;4196;48.926;8.964;2022-08-19T10:56:57;7.47;;;5.87;;
8317;SDS011;4196;48.926;8.964;2022-08-19T10:59:43;8.13;;;5.27;;
8317;SDS011;4196;48.926;8.964;2022-08-19T11:02:30;6.03;;;4.83;;
8317;SDS011;4196;48.926;8.964;2022-08-19T11:05:18;6.20;;;5.17;;
8317;SDS011;4196;48.926;8.964;2022-08-19T11:08:09;6.90;;;4.73;;
8317;SDS011;4196;48.926;8.964;2022-08-19T11:11:09;5.13;;;4.13;;
8317;SDS011;4196;48.926;8.964;2022-08-19T11:13:55;7.85;;;4.55;;
8317;SDS011;4196;48.926;8.964;2022-08-19T11:16:43;7.63;;;4.30;;
8317;SDS011;4196;48.926;8.964;2022-08-19T11:19:31;5.47;;;4.40;;
8317;SDS011;4196;48.926;8.964;2022-08-19T11:22:18;6.43;;;4.20;;
8317;SDS011;4196;48.926;8.964;2022-08-19T11:25:05;7.07;;;4.50;;
8317;SDS011;4196;48.926;8.964;2022-08-19T11:27:52;5.07;;;4.57;;
8317;SDS011;4196;48.926;8.964;2022-08-19T11:30:39;6.97;;;4.47;;
8317;SDS011;4196;48.926;8.964;2022-08-19T11:33:25;6.90;;;4.77;;
8317;SDS011;4196;48.926;8.964;2022-08-19T11:36:12;7.53;;;4.70;;
8317;SDS011;4196;48.926;8.964;2022-08-19T11:39:00;5.40;;;4.23;;
8317;SDS011;4196;48.926;8.964;2022-08-19T11:41:48;6.60;;;4.57;;
8317;SDS011;4196;48.926;8.964;2022-08-19T11:44:34;6.03;;;4.63;;
8317;SDS011;4196;48.926;8.964;2022-08-19T11:47:22;6.70;;;5.20;;
8317;SDS011;4196;48.926;8.964;2022-08-19T11:50:09;6.23;;;4.50;;
8317;SDS011;4196;48.926;8.964;2022-08-19T11:52:56;5.87;;;4.23;;
8317;SDS011;4196;48.926;8.964;2022-08-19T11:55:43;4.97;;;4.43;;
8317;SDS011;4196;48.926;8.964;2022-08-19T11:58:30;5.83;;;4.40;;
8317;SDS011;4196;48.926;8.964;2022-08-19T12:01:18;5.67;;;4.17;;
8317;SDS011;4196;48.926;8.964;2022-08-19T12:04:05;7.50;;;3.43;;
8317;SDS011;4196;48.926;8.964;2022-08-19T12:06:52;5.13;;;3.87;;
8317;SDS011;4196;48.926;8.964;2022-08-19T12:09:39;4.77;;;4.37;;
8317;SDS011;4196;48.926;8.964;2022-08-19T12:12:27;4.73;;;4.00;;
8317;SDS011;4196;48.926;8.964;2022-08-19T12:15:14;4.50;;;4.00;;
8317;SDS011;4196;48.926;8.964;2022-08-19T12:18:00;5.72;;;3.85;;
8317;SDS011;4196;48.926;8.964;2022-08-19T12:20:49;5.93;;;4.10;;
8317;SDS011;4196;48.926;8.964;2022-08-19T12:23:37;6.07;;;4.50;;
8317;SDS011;4196;48.926;8.964;2022-08-19T12:26:24;9.83;;;5.30;;
8317;SDS011;4196;48.926;8.964;2022-08-19T12:29:12;6.97;;;4.55;;
8317;SDS011;4196;48.926;8.964;2022-08-19T12:32:01;9.10;;;4.97;;
8317;SDS011;4196;48.926;8.964;2022-08-19T12:34:49;8.13;;;4.32;;
8317;SDS011;4196;48.926;8.964;2022-08-19T12:37:36;5.75;;;4.50;;
8317;SDS011;4196;48.926;8.964;2022-08-19T12:40:22;6.15;;;5.03;;
8317;SDS011;4196;48.926;8.964;2022-08-19T12:43:11;7.10;;;4.68;;
8317;SDS011;4196;48.926;8.964;2022-08-19T12:45:57;6.28;;;4.95;;
8317;SDS011;4196;48.926;8.964;2022-08-19T12:48:44;7.38;;;4.28;;
8317;SDS011;4196;48.926;8.964;2022-08-19T12:51:31;4.57;;;4.05;;
8317;SDS011;4196;48.926;8.964;2022-08-19T12:54:17;5.13;;;4.50;;
8317;SDS011;4196;48.926;8.964;2022-08-19T12:57:05;5.25;;;4.45;;
8317;SDS011;4196;48.926;8.964;2022-08-19T12:59:53;6.63;;;4.63;;
8317;SDS011;4196;48.926;8.964;2022-08-19T13:02:41;8.95;;;5.22;;
8317;SDS011;4196;48.926;8.964;2022-08-19T13:05:32;6.80;;;4.93;;
8317;SDS011;4196;48.926;8.964;2022-08-19T13:08:20;7.20;;;4.65;;
8317;SDS011;4196;48.926;8.964;2022-08-19T13:11:13;5.55;;;4.70;;
8317;SDS011;4196;48.926;8.964;2022-08-19T13:14:03;6.43;;;5.25;;
8317;SDS011;4196;48.926;8.964;2022-08-19T13:16:50;6.05;;;5.45;;
8317;SDS011;4196;48.926;8.964;2022-08-19T13:19:37;5.95;;;5.10;;
8317;SDS011;4196;48.926;8.964;2022-08-19T13:22:25;6.90;;;5.15;;
8317;SDS011;4196;48.926;8.964;2022-08-19T13:25:13;5.28;;;4.78;;
8317;SDS011;4196;48.926;8.964;2022-08-19T13:28:02;5.35;;;4.60;;
8317;SDS011;4196;48.926;8.964;2022-08-19T13:30:49;6.70;;;5.10;;
8317;SDS011;4196;48.926;8.964;2022-08-19T13:33:54;8.73;;;4.97;;
8317;SDS011;4196;48.926;8.964;2022-08-19T13:36:40;6.03;;;5.43;;
8317;SDS011;4196;48.926;8.964;2022-08-19T13:39:27;6.15;;;5.25;;
8317;SDS011;4196;48.926;8.964;2022-08-19T13:42:14;5.72;;;5.22;;
8317;SDS011;4196;48.926;8.964;2022-08-19T13:45:00;5.30;;;4.90;;
8317;SDS011;4196;48.926;8.964;2022-08-19T13:47:47;5.78;;;5.15;;
8317;SDS011;4196;48.926;8.964;2022-08-19T13:50:39;7.72;;;4.70;;
8317;SDS011;4196;48.926;8.964;2022-08-19T13:53:27;6.05;;;4.75;;
8317;SDS011;4196;48.926;8.964;2022-08-19T13:56:15;5.28;;;4.50;;
8317;SDS011;4196;48.926;8.964;2022-08-19T13:59:11;6.75;;;4.40;;
8317;SDS011;4196;48.926;8.964;2022-08-19T14:01:58;5.57;;;4.35;;
8317;SDS011;4196;48.926;8.964;2022-08-19T14:04:46;6.32;;;4.10;;
8317;SDS011;4196;48.926;8.964;2022-08-19T14:07:32;4.85;;;4.45;;
8317;SDS011;4196;48.926;8.964;2022-08-19T14:10:19;5.65;;;4.63;;
8317;SDS011;4196;48.926;8.964;2022-08-19T14:13:06;6.70;;;4.20;;
8317;SDS011;4196;48.926;8.964;2022-08-19T14:15:52;4.68;;;4.28;;
8317;SDS011;4196;48.926;8.964;2022-08-19T14:18:39;5.05;;;4.30;;
8317;SDS011;4196;48.926;8.964;2022-08-19T14:21:26;3.92;;;3.63;;
8317;SDS011;4196;48.926;8.964;2022-08-19T14:24:12;4.88;;;4.40;;
8317;SDS011;4196;48.926;8.964;2022-08-19T14:26:59;5.63;;;4.10;;
8317;SDS011;4196;48.926;8.964;2022-08-19T14:29:46;4.88;;;4.28;;
8317;SDS011;4196;48.926;8.964;2022-08-19T14:32:33;4.80;;;4.38;;
8317;SDS011;4196;48.926;8.964;2022-08-19T14:35:20;4.65;;;4.15;;
8317;SDS011;4196;48.926;8.964;2022-08-19T14:38:14;4.03;;;3.72;;
8317;SDS011;4196;48.926;8.964;2022-08-19T14:41:05;4.93;;;3.97;;
8317;SDS011;4196;48.926;8.964;2022-08-19T14:43:53;4.40;;;4.00;;
8317;SDS011;4196;48.926;8.964;2022-08-19T14:46:40;5.78;;;4.60;;
8317;SDS011;4196;48.926;8.964;2022-08-19T14:49:34;4.78;;;3.78;;
8317;SDS011;4196;48.926;8.964;2022-08-19T14:52:28;4.38;;;3.97;;
8317;SDS011;4196;48.926;8.964;2022-08-19T14:55:15;6.45;;;3.70;;
8317;SDS011;4196;48.926;8.964;2022-08-19T14:58:02;5.38;;;3.40;;
8317;SDS011;4196;48.926;8.964;2022-08-19T15:00:53;4.43;;;3.95;;
8317;SDS011;4196;48.926;8.964;2022-08-19T15:03:40;4.78;;;3.75;;
8317;SDS011;4196;48.926;8.964;2022-08-19T15:06:27;3.90;;;3.60;;
8317;SDS011;4196;48.926;8.964;2022-08-19T15:09:14;5.47;;;3.83;;
8317;SDS011;4196;48.926;8.964;2022-08-19T15:12:00;5.40;;;3.88;;
8317;SDS011;4196;48.926;8.964;2022-08-19T15:14:48;4.38;;;3.90;;
8317;SDS011;4196;48.926;8.964;2022-08-19T15:17:41;4.25;;;3.78;;
8317;SDS011;4196;48.926;8.964;2022-08-19T15:20:31;7.90;;;4.55;;
8317;SDS011;4196;48.926;8.964;2022-08-19T15:23:19;3.90;;;3.60;;
8317;SDS011;4196;48.926;8.964;2022-08-19T15:26:06;3.78;;;3.45;;
8317;SDS011;4196;48.926;8.964;2022-08-19T15:29:02;4.68;;;4.00;;
8317;SDS011;4196;48.926;8.964;2022-08-19T15:31:49;4.85;;;4.05;;
8317;SDS011;4196;48.926;8.964;2022-08-19T15:34:39;4.50;;;3.60;;
8317;SDS011;4196;48.926;8.964;2022-08-19T15:37:25;4.45;;;3.65;;
8317;SDS011;4196;48.926;8.964;2022-08-19T15:40:12;4.05;;;3.40;;
8317;SDS011;4196;48.926;8.964;2022-08-19T15:42:59;4.28;;;3.50;;
8317;SDS011;4196;48.926;8.964;2022-08-19T15:45:46;3.88;;;3.58;;
8317;SDS011;4196;48.926;8.964;2022-08-19T15:48:34;5.18;;;3.28;;
8317;SDS011;4196;48.926;8.964;2022-08-19T15:51:23;3.42;;;3.13;;
8317;SDS011;4196;48.926;8.964;2022-08-19T15:54:14;3.67;;;3.20;;
8317;SDS011;4196;48.926;8.964;2022-08-19T15:57:02;4.03;;;3.58;;
8317;SDS011;4196;48.926;8.964;2022-08-19T16:00:07;4.38;;;3.55;;
8317;SDS011;4196;48.926;8.964;2022-08-19T16:03:13;3.95;;;3.55;;
8317;SDS011;4196;48.926;8.964;2022-08-19T16:06:26;4.82;;;3.45;;
8317;SDS011;4196;48.926;8.964;2022-08-19T16:09:13;3.38;;;3.08;;
8317;SDS011;4196;48.926;8.964;2022-08-19T16:12:02;3.92;;;3.35;;
8317;SDS011;4196;48.926;8.964;2022-08-19T16:14:51;3.70;;;3.35;;
8317;SDS011;4196;48.926;8.964;2022-08-19T16:17:38;6.40;;;3.40;;
8317;SDS011;4196;48.926;8.964;2022-08-19T16:20:25;4.10;;;3.70;;
8317;SDS011;4196;48.926;8.964;2022-08-19T16:23:12;3.70;;;3.38;;
8317;SDS011;4196;48.926;8.964;2022-08-19T16:25:59;3.63;;;3.33;;
8317;SDS011;4196;48.926;8.964;2022-08-19T16:28:46;3.97;;;3.63;;
8317;SDS011;4196;48.926;8.964;2022-08-19T16:31:33;3.38;;;3.08;;
8317;SDS011;4196;48.926;8.964;2022-08-19T16:34:20;3.60;;;3.30;;
8317;SDS011;4196;48.926;8.964;2022-08-19T16:37:08;4.68;;;3.50;;
8317;SDS011;4196;48.926;8.964;2022-08-19T16:39:55;4.10;;;3.13;;
8317;SDS011;4196;48.926;8.964;2022-08-19T16:42:42;3.40;;;3.10;;
8317;SDS011;4196;48.926;8.964;2022-08-19T16:45:28;4.22;;;3.03;;
8317;SDS011;4196;48.926;8.964;2022-08-19T16:48:15;3.83;;;3.53;;
8317;SDS011;4196;48.926;8.964;2022-08-19T16:51:02;4.85;;;3.33;;
8317;SDS011;4196;48.926;8.964;2022-08-19T16:53:51;6.43;;;3.60;;
8317;SDS011;4196;48.926;8.964;2022-08-19T16:56:38;6.00;;;3.60;;
8317;SDS011;4196;48.926;8.964;2022-08-19T16:59:24;5.47;;;3.65;;
8317;SDS011;4196;48.926;8.964;2022-08-19T17:02:11;7.43;;;4.93;;
8317;SDS011;4196;48.926;8.964;2022-08-19T17:04:58;7.05;;;6.22;;
8317;SDS011;4196;48.926;8.964;2022-08-19T17:07:45;9.68;;;7.45;;
8317;SDS011;4196;48.926;8.964;2022-08-19T17:10:31;10.85;;;8.13;;
8317;SDS011;4196;48.926;8.964;2022-08-19T17:13:17;11.43;;;7.68;;
8317;SDS011;4196;48.926;8.964;2022-08-19T17:16:04;10.93;;;7.47;;
8317;SDS011;4196;48.926;8.964;2022-08-19T17:18:52;9.93;;;8.33;;
8317;SDS011;4196;48.926;8.964;2022-08-19T17:21:40;10.43;;;7.87;;